Gemmell, Minnesota
Current Conditions -  °F | °C
As of 4:29 AM on Monday 22 Dec 2014 (Local Time) from KVWU Reporting Station
Overcast Overcast  
Wind Chill:   Ceiling: 500
Heat Index:   Visibility: 7mi
Dew Point:   Wind: 0mph
Humidity: 100%   Direction: NA
Pressure: 29.61"   Gusts: NA
Location:  47.9892°N, 94.2138°W
Report Text: KVWU 221029Z AUTO 00000KT 7SM OVC005 01/01 A2961 RMK AO2
Loading
Personal Weather Stations






























Interactive Weather Map New forecast layout! Learn more

10-Day Weather Forecast

Advertisements
Track Severe Weather on mobile